Avis, Pennsylvania
Current Conditions -  °F | °C
As of 9:54 PM on Friday 19 Dec 2014 (Local Time) from KIPT Reporting Station
Overcast Overcast  
Wind Chill: 25°   Ceiling: 4300
Heat Index: 33°   Visibility: 10mi
Dew Point: 19°   Wind: 10mph
Humidity: 56%   Direction: 310°NW
Pressure: 30.22"   Gusts: NA
Location:  41.18°N, 77.31°W
Report Text: KIPT 200254Z 31009KT 10SM SCT034 OVC043 01/M07 A3022 RMK AO2 SLP240 T00061072 53009
Loading
Personal Weather Stations






























Interactive Weather Map New forecast layout! Learn more

10-Day Weather Forecast

Advertisements
Track Severe Weather on mobile